Time;durP1;ratioP1;P1;durP2;ratioP2;P2;SDS_P1;SDS_P2;PMS_P1;PMS_P2;Temp;Humidity;BMP_temperature;BMP_pressure;BME280_temperature;BME280_humidity;BME280_pressure;Samples;Min_cycle;Max_cycle;Signal;HPM_P1;HPM_P2
2024/03/16 00:01:49;;;;;;;2.47;0.60;;;;;;;9.38;100.00;98720.59;5051538;28;20025;-61
2024/03/16 00:04:14;;;;;;;1.75;0.90;;;;;;;9.36;100.00;98718.06;5050748;28;20484;-61
2024/03/16 00:06:40;;;;;;;1.50;0.90;;;;;;;9.43;100.00;98721.66;5047942;28;20040;-60
2024/03/16 00:09:06;;;;;;;2.53;0.77;;;;;;;9.38;100.00;98724.09;5048594;28;20484;-61
2024/03/16 00:11:31;;;;;;;3.35;0.70;;;;;;;9.41;100.00;98720.19;5044155;28;20423;-61
2024/03/16 00:14:03;;;;;;;2.08;0.77;;;;;;;9.44;100.00;98719.78;5051489;28;20017;-61
2024/03/16 00:16:30;;;;;;;2.92;0.88;;;;;;;9.41;100.00;98717.47;5049087;28;20517;-62
2024/03/16 00:18:56;;;;;;;1.52;0.60;;;;;;;9.51;100.00;98711.69;5049860;28;20021;-62
2024/03/16 00:21:21;;;;;;;1.17;0.60;;;;;;;9.48;100.00;98715.63;5048624;28;20079;-62
2024/03/16 00:23:47;;;;;;;2.85;0.90;;;;;;;9.47;100.00;98718.56;5049789;28;20032;-61
2024/03/16 00:26:13;;;;;;;1.25;0.80;;;;;;;9.49;100.00;98725.41;5043960;28;20041;-60
2024/03/16 00:28:38;;;;;;;3.30;0.80;;;;;;;9.47;100.00;98723.94;5045792;28;20055;-61
2024/03/16 00:31:04;;;;;;;1.00;0.60;;;;;;;9.44;100.00;98735.97;5047459;28;20408;-60
2024/03/16 00:33:29;;;;;;;0.82;0.52;;;;;;;9.38;100.00;98736.78;5048186;28;20021;-60
2024/03/16 00:35:55;;;;;;;0.77;0.50;;;;;;;9.34;100.00;98735.50;5048519;28;20130;-61
2024/03/16 00:38:20;;;;;;;2.90;0.65;;;;;;;9.28;100.00;98747.91;5042187;28;20026;-60
2024/03/16 00:40:45;;;;;;;4.63;1.05;;;;;;;9.17;100.00;98730.41;5043751;28;20025;-61
2024/03/16 00:43:11;;;;;;;2.75;0.82;;;;;;;9.23;100.00;98734.19;5053544;28;20495;-60
2024/03/16 00:45:36;;;;;;;1.92;0.80;;;;;;;9.12;100.00;98707.72;5031452;28;20025;-61
2024/03/16 00:48:04;;;;;;;1.58;0.60;;;;;;;9.16;100.00;98709.00;5049103;28;20033;-62
2024/03/16 00:50:31;;;;;;;2.30;0.95;;;;;;;9.11;100.00;98724.94;5043321;28;20021;-61
2024/03/16 00:52:57;;;;;;;1.98;0.70;;;;;;;9.10;100.00;98725.97;5049119;28;20071;-61
2024/03/16 00:55:22;;;;;;;6.97;0.60;;;;;;;9.10;100.00;98712.47;5044398;28;20026;-61
2024/03/16 00:57:48;;;;;;;1.00;0.73;;;;;;;9.03;100.00;98714.28;5047335;28;20040;-61
2024/03/16 01:00:14;;;;;;;1.50;0.70;;;;;;;9.13;100.00;98722.88;5050653;28;20039;-62
2024/03/16 01:02:41;;;;;;;2.45;0.90;;;;;;;9.10;100.00;98725.97;5050752;28;20103;-61
2024/03/16 01:05:06;;;;;;;1.98;0.73;;;;;;;9.10;100.00;98728.69;5028467;28;20079;-61
2024/03/16 01:07:32;;;;;;;1.55;0.70;;;;;;;9.07;100.00;98738.00;5047921;28;20025;-60
2024/03/16 01:09:57;;;;;;;1.30;0.68;;;;;;;9.04;100.00;98732.13;5052247;28;20408;-61
2024/03/16 01:12:23;;;;;;;1.00;0.60;;;;;;;9.05;100.00;98736.53;5046446;28;20496;-60
2024/03/16 01:14:48;;;;;;;1.40;0.60;;;;;;;8.97;100.00;98735.63;5049825;28;20365;-60
2024/03/16 01:17:15;;;;;;;3.85;1.00;;;;;;;8.95;100.00;98726.06;5043728;28;20498;-60
2024/03/16 01:19:41;;;;;;;2.08;1.30;;;;;;;8.96;100.00;98733.09;5050295;28;20096;-60
2024/03/16 01:22:07;;;;;;;4.75;0.80;;;;;;;8.99;100.00;98724.66;5046032;28;20531;-60
2024/03/16 01:24:32;;;;;;;1.15;0.65;;;;;;;8.95;100.00;98721.50;5044991;28;20148;-62
2024/03/16 01:26:58;;;;;;;1.85;0.60;;;;;;;9.04;100.00;98729.44;5048581;28;20086;-60
2024/03/16 01:29:24;;;;;;;2.22;0.52;;;;;;;9.05;100.00;98731.13;5050954;28;20033;-60
2024/03/16 01:31:49;;;;;;;2.15;0.90;;;;;;;9.08;100.00;98730.72;5046089;28;20090;-60
2024/03/16 01:34:14;;;;;;;4.95;1.45;;;;;;;9.10;100.00;98729.50;5045521;28;20044;-60
2024/03/16 01:36:40;;;;;;;2.38;0.80;;;;;;;9.06;100.00;98735.47;5047508;28;20029;-60
2024/03/16 01:39:05;;;;;;;2.03;0.88;;;;;;;9.08;100.00;98722.63;5038827;28;20036;-61
2024/03/16 01:41:31;;;;;;;5.10;0.80;;;;;;;9.03;100.00;98714.28;5048937;28;20032;-60
2024/03/16 01:44:11;;;;;;;1.35;0.63;;;;;;;9.05;100.00;98715.75;5047294;28;20572;-61
2024/03/16 01:46:41;;;;;;;1.42;0.45;;;;;;;9.06;100.00;98712.03;5044708;28;20106;-60
2024/03/16 01:49:08;;;;;;;2.30;0.50;;;;;;;9.10;100.00;98710.63;5044751;28;20108;-60
2024/03/16 01:51:39;;;;;;;1.05;0.68;;;;;;;9.11;100.00;98700.66;5047219;28;20144;-61
2024/03/16 01:54:08;;;;;;;0.43;0.30;;;;;;;9.11;100.00;98704.16;5048399;28;20036;-60
2024/03/16 01:56:36;;;;;;;0.82;0.40;;;;;;;9.08;100.00;98709.13;5044856;28;20037;-60
2024/03/16 01:59:02;;;;;;;1.58;0.55;;;;;;;9.10;100.00;98709.78;5045450;28;20056;-60
2024/03/16 02:01:28;;;;;;;1.88;0.40;;;;;;;9.06;100.00;98705.78;5048765;28;20062;-60
2024/03/16 02:03:57;;;;;;;1.45;0.50;;;;;;;9.08;100.00;98698.34;5049343;28;20107;-60
2024/03/16 02:06:22;;;;;;;1.00;0.60;;;;;;;9.08;100.00;98707.28;5026395;28;20032;-60
2024/03/16 02:08:48;;;;;;;1.58;0.52;;;;;;;9.02;100.00;98716.16;5046857;28;20029;-60
2024/03/16 02:11:13;;;;;;;2.20;0.55;;;;;;;8.97;100.00;98703.25;5049352;28;20436;-61
2024/03/16 02:13:39;;;;;;;0.95;0.40;;;;;;;8.95;100.00;98716.09;5046736;28;20376;-61
2024/03/16 02:16:05;;;;;;;1.35;0.50;;;;;;;8.84;100.00;98715.81;5048263;28;20032;-60
2024/03/16 02:18:36;;;;;;;3.97;0.28;;;;;;;8.78;100.00;98715.53;5040309;28;20083;-61
2024/03/16 02:21:05;;;;;;;3.30;0.55;;;;;;;8.83;100.00;98717.66;5044530;28;20021;-60
2024/03/16 02:23:31;;;;;;;0.57;0.35;;;;;;;8.76;100.00;98723.00;5045428;28;20037;-61
2024/03/16 02:25:57;;;;;;;0.65;0.35;;;;;;;8.75;100.00;98725.88;5049847;28;20029;-61
2024/03/16 02:28:24;;;;;;;1.08;0.57;;;;;;;8.76;100.00;98711.38;5044735;28;21712;-61
2024/03/16 02:30:49;;;;;;;0.63;0.40;;;;;;;8.74;100.00;98718.81;5052141;28;20025;-61
2024/03/16 02:33:15;;;;;;;1.13;0.60;;;;;;;8.72;100.00;98710.06;5047129;28;20491;-62
2024/03/16 02:35:42;;;;;;;2.08;0.45;;;;;;;8.69;100.00;98716.69;5053349;28;20037;-61
2024/03/16 02:38:07;;;;;;;0.68;0.30;;;;;;;8.77;100.00;98707.63;5053935;28;20116;-62
2024/03/16 02:40:35;;;;;;;1.92;0.40;;;;;;;8.75;100.00;98707.00;5045063;28;20109;-61
2024/03/16 02:43:00;;;;;;;0.55;0.30;;;;;;;8.71;100.00;98713.81;5052502;28;20467;-61
2024/03/16 02:45:25;;;;;;;1.85;0.38;;;;;;;8.70;100.00;98707.59;5049072;28;20060;-61
2024/03/16 02:47:51;;;;;;;5.68;0.50;;;;;;;8.69;100.00;98702.38;5049013;28;20060;-61
2024/03/16 02:50:17;;;;;;;0.93;0.38;;;;;;;8.73;100.00;98700.97;5046755;28;20036;-61
2024/03/16 02:52:43;;;;;;;1.48;0.30;;;;;;;8.72;100.00;98708.25;5053696;28;20021;-61
2024/03/16 02:55:10;;;;;;;1.90;0.35;;;;;;;8.74;100.00;98700.75;5049269;28;20037;-61
2024/03/16 02:57:35;;;;;;;2.08;0.35;;;;;;;8.74;100.00;98705.34;5051612;28;20027;-60
2024/03/16 03:00:00;;;;;;;3.10;0.30;;;;;;;8.76;100.00;98692.50;5049137;28;20021;-62
2024/03/16 03:02:28;;;;;;;1.63;0.45;;;;;;;8.71;100.00;98693.06;5050414;28;20107;-60
2024/03/16 03:04:53;;;;;;;2.15;0.40;;;;;;;8.68;100.00;98676.44;5051876;28;20468;-62
2024/03/16 03:07:19;;;;;;;1.20;0.82;;;;;;;8.69;100.00;98694.28;5047482;28;20016;-61
2024/03/16 03:09:46;;;;;;;1.02;0.28;;;;;;;8.65;100.00;98690.31;5049029;28;20029;-60
2024/03/16 03:12:11;;;;;;;0.55;0.30;;;;;;;8.69;100.00;98702.38;5051592;28;20463;-61
2024/03/16 03:14:37;;;;;;;1.23;0.32;;;;;;;8.69;100.00;98702.38;5050950;28;20040;-60
2024/03/16 03:17:02;;;;;;;2.22;0.50;;;;;;;8.75;100.00;98707.00;5050999;28;20079;-60
2024/03/16 03:19:28;;;;;;;0.70;0.40;;;;;;;8.75;100.00;98709.69;5048222;28;20033;-60
2024/03/16 03:21:53;;;;;;;1.50;0.47;;;;;;;8.79;100.00;98727.16;5047321;28;20102;-60
2024/03/16 03:24:18;;;;;;;0.90;0.45;;;;;;;8.86;100.00;98727.25;5048677;28;20041;-60
2024/03/16 03:26:44;;;;;;;1.23;0.40;;;;;;;8.85;100.00;98737.16;5049284;28;20119;-60
2024/03/16 03:29:09;;;;;;;0.73;0.38;;;;;;;8.92;100.00;98753.44;5048128;28;20045;-60
2024/03/16 03:31:35;;;;;;;5.57;0.77;;;;;;;8.87;100.00;98740.50;5047945;28;20029;-60
2024/03/16 03:34:13;;;;;;;2.10;0.30;;;;;;;8.86;100.00;98755.03;5053763;28;20032;-60
2024/03/16 03:36:49;;;;;;;1.48;0.65;;;;;;;8.87;100.00;98751.31;5101259;22;20045;-53
2024/03/16 03:41:49;;;;;;;2.65;0.60;;;;;;;8.80;100.00;98744.19;4132007;22;20092;-59
2024/03/16 04:09:55;;;;;;;1.45;0.57;;;;;;;8.70;100.00;98758.84;5194432;22;20023;-60
2024/03/16 04:15:03;;;;;;;1.27;0.47;;;;;;;8.80;100.00;98760.38;5029349;28;20056;-54
2024/03/16 04:17:29;;;;;;;1.88;0.95;;;;;;;8.74;100.00;98764.66;5029170;28;20408;-54
2024/03/16 04:19:54;;;;;;;1.75;1.00;;;;;;;8.77;100.00;98777.78;5012626;28;20036;-54
2024/03/16 04:22:19;;;;;;;5.05;0.98;;;;;;;8.76;100.00;98778.81;5032239;28;20022;-54
2024/03/16 04:24:45;;;;;;;5.60;0.82;;;;;;;8.78;100.00;98777.59;5029406;28;20557;-51
2024/03/16 04:27:10;;;;;;;2.75;0.75;;;;;;;8.80;100.00;98793.56;5027458;28;20021;-54
2024/03/16 04:29:35;;;;;;;1.70;0.68;;;;;;;8.75;100.00;98788.78;5024353;28;20029;-54
2024/03/16 04:32:01;;;;;;;5.85;1.45;;;;;;;8.79;100.00;98786.50;5019998;28;20025;-54
2024/03/16 04:34:26;;;;;;;5.55;1.45;;;;;;;8.76;100.00;98789.59;5018825;28;20025;-51
2024/03/16 04:36:52;;;;;;;1.45;1.00;;;;;;;8.82;100.00;98796.09;5025499;28;20034;-52
2024/03/16 04:39:19;;;;;;;2.72;1.02;;;;;;;8.82;100.00;98788.81;5031793;28;20049;-52
2024/03/16 04:41:45;;;;;;;3.90;1.23;;;;;;;8.82;100.00;98788.81;5023963;28;20021;-54
2024/03/16 04:44:10;;;;;;;4.38;1.33;;;;;;;8.79;100.00;98786.50;5031832;28;20022;-54
2024/03/16 04:46:35;;;;;;;5.15;1.33;;;;;;;8.76;100.00;98776.94;5026346;28;20029;-54
2024/03/16 04:49:01;;;;;;;1.52;0.70;;;;;;;8.76;100.00;98784.19;5028036;28;20115;-55
2024/03/16 04:51:26;;;;;;;5.72;2.05;;;;;;;8.69;100.00;98776.03;5030443;28;20112;-54
2024/03/16 04:53:51;;;;;;;2.70;1.30;;;;;;;8.68;100.00;98774.38;5027070;28;20022;-53
2024/03/16 04:56:17;;;;;;;2.88;1.40;;;;;;;8.73;100.00;98784.59;5022282;28;20037;-53
2024/03/16 04:58:42;;;;;;;2.70;1.48;;;;;;;8.81;100.00;98780.94;5027480;28;20025;-52
2024/03/16 05:01:09;;;;;;;1.75;1.13;;;;;;;8.83;100.00;98795.91;5024202;28;20041;-54
2024/03/16 05:03:35;;;;;;;3.15;1.10;;;;;;;8.82;100.00;98796.91;5023156;28;20029;-52
2024/03/16 05:06:01;;;;;;;1.38;1.02;;;;;;;8.81;100.00;98803.34;5026164;28;20021;-54
2024/03/16 05:08:29;;;;;;;1.63;0.75;;;;;;;8.86;100.00;98802.78;5025880;28;20458;-54
2024/03/16 05:10:54;;;;;;;0.70;0.50;;;;;;;8.80;100.00;98780.06;5028285;28;20082;-55
2024/03/16 05:13:20;;;;;;;2.17;0.85;;;;;;;8.81;100.00;98792.56;5033712;28;20280;-54
2024/03/16 05:15:45;;;;;;;3.50;0.50;;;;;;;8.80;100.00;98793.56;5022900;28;20033;-54
2024/03/16 05:18:14;;;;;;;4.07;0.65;;;;;;;8.77;100.00;98786.69;5031982;28;20060;-53
2024/03/16 05:20:40;;;;;;;2.03;0.50;;;;;;;8.81;100.00;98794.44;5029217;28;20029;-54
2024/03/16 05:23:05;;;;;;;1.65;0.52;;;;;;;8.82;100.00;98798.78;5023752;28;20091;-54
2024/03/16 05:25:31;;;;;;;1.98;0.90;;;;;;;8.88;100.00;98800.69;5024811;28;20506;-55
2024/03/16 05:27:56;;;;;;;5.78;0.73;;;;;;;8.88;100.00;98808.78;5022508;28;20025;-54
2024/03/16 05:30:23;;;;;;;1.40;0.40;;;;;;;8.86;100.00;98806.31;5029730;28;20033;-54
2024/03/16 05:32:48;;;;;;;3.70;0.80;;;;;;;8.83;100.00;98812.09;5031599;28;20369;-54
2024/03/16 05:35:14;;;;;;;3.63;2.42;;;;;;;8.77;100.00;98813.66;5030174;28;20033;-54
2024/03/16 05:37:39;;;;;;;6.85;2.90;;;;;;;8.85;100.00;98818.09;5029749;28;20156;-54
2024/03/16 05:40:10;;;;;;;7.82;3.70;;;;;;;8.88;100.00;98811.50;5020909;28;20041;-54
2024/03/16 05:42:37;;;;;;;5.00;2.95;;;;;;;8.87;100.00;98817.94;5028515;28;20029;-54
2024/03/16 05:45:03;;;;;;;2.90;2.22;;;;;;;8.90;100.00;98815.66;5024692;28;20034;-54
2024/03/16 05:47:28;;;;;;;2.05;1.10;;;;;;;8.94;100.00;98819.66;5026319;28;20104;-54
2024/03/16 05:49:54;;;;;;;2.75;1.20;;;;;;;8.90;100.00;98826.47;5020994;28;20119;-54
2024/03/16 05:52:19;;;;;;;4.95;0.98;;;;;;;8.93;100.00;98830.63;5028940;28;20028;-53
2024/03/16 05:54:45;;;;;;;4.13;1.27;;;;;;;8.97;100.00;98832.75;5027111;28;20029;-53
2024/03/16 05:57:10;;;;;;;2.05;1.08;;;;;;;9.00;100.00;98829.69;5021640;28;20034;-54
2024/03/16 05:59:36;;;;;;;4.47;1.15;;;;;;;8.99;100.00;98817.22;5027866;28;20052;-53
2024/03/16 06:02:01;;;;;;;0.82;0.80;;;;;;;9.08;100.00;98838.69;5025014;28;20030;-53
2024/03/16 06:04:26;;;;;;;2.20;1.00;;;;;;;9.17;100.00;98841.06;5031972;28;20375;-54
2024/03/16 06:06:52;;;;;;;6.55;1.38;;;;;;;9.25;100.00;98850.03;5033650;28;20057;-54
2024/03/16 06:09:17;;;;;;;2.20;0.50;;;;;;;9.21;100.00;98839.63;5036524;28;20033;-54
2024/03/16 06:11:42;;;;;;;2.95;0.80;;;;;;;9.24;100.00;98842.97;5029011;28;20029;-54
2024/03/16 06:14:11;;;;;;;1.25;0.80;;;;;;;9.31;100.00;98841.19;5031851;28;20026;-54
2024/03/16 06:16:37;;;;;;;4.90;1.00;;;;;;;9.39;100.00;98846.44;5028698;28;20034;-54
2024/03/16 06:19:04;;;;;;;3.95;0.75;;;;;;;9.42;100.00;98852.28;5025621;28;20041;-54
2024/03/16 06:21:29;;;;;;;2.25;0.80;;;;;;;9.43;100.00;98851.28;5036075;28;20056;-54
2024/03/16 06:23:55;;;;;;;2.15;0.98;;;;;;;9.41;100.00;98857.91;5031375;28;20101;-54
2024/03/16 06:26:20;;;;;;;2.25;1.05;;;;;;;9.41;100.00;98856.03;5031285;28;20080;-54
2024/03/16 06:28:56;;;;;;;3.58;1.38;;;;;;;9.34;100.00;98855.13;5031055;28;20026;-54
2024/03/16 06:31:36;;;;;;;6.53;1.88;;;;;;;9.26;100.00;98857.13;5030864;28;20021;-53
2024/03/16 06:34:04;;;;;;;5.28;2.00;;;;;;;9.30;100.00;98869.19;5030419;28;20033;-53
2024/03/16 06:36:31;;;;;;;3.28;2.10;;;;;;;9.42;100.00;98862.25;5024788;28;20024;-54
2024/03/16 06:38:56;;;;;;;5.07;2.17;;;;;;;9.35;100.00;98870.31;5031256;28;20033;-53
2024/03/16 06:41:22;;;;;;;3.72;1.80;;;;;;;9.36;100.00;98874.66;5034849;28;20029;-54
2024/03/16 06:43:47;;;;;;;3.42;1.90;;;;;;;9.35;100.00;98881.13;5031357;28;20060;-54
2024/03/16 06:46:13;;;;;;;4.30;2.35;;;;;;;9.28;100.00;98876.69;5032862;28;20031;-54
2024/03/16 06:48:38;;;;;;;4.43;1.75;;;;;;;9.21;100.00;98868.50;5027594;28;20390;-54
2024/03/16 06:51:04;;;;;;;2.92;1.80;;;;;;;9.26;100.00;98884.97;5029021;28;20488;-53
2024/03/16 06:53:29;;;;;;;4.18;1.60;;;;;;;9.39;100.00;98893.19;5026786;28;20014;-54
2024/03/16 06:55:55;;;;;;;2.75;1.40;;;;;;;9.48;100.00;98893.03;5015835;28;20457;-53
2024/03/16 06:58:21;;;;;;;4.40;1.50;;;;;;;9.52;100.00;98891.63;5028687;28;20026;-53
2024/03/16 07:00:48;;;;;;;2.60;1.38;;;;;;;9.43;100.00;98886.38;5034347;28;20109;-53
2024/03/16 07:03:15;;;;;;;2.35;1.55;;;;;;;9.51;100.00;98896.22;5033609;28;20025;-53
2024/03/16 07:05:41;;;;;;;1.85;1.40;;;;;;;9.50;100.00;98897.22;5028297;28;20366;-53
2024/03/16 07:08:09;;;;;;;4.05;1.83;;;;;;;9.58;100.00;98898.94;5011455;28;20028;-54
2024/03/16 07:10:35;;;;;;;4.15;1.75;;;;;;;9.75;100.00;98903.06;5030135;28;20032;-53
2024/03/16 07:13:01;;;;;;;4.45;1.80;;;;;;;9.83;100.00;98908.31;5028392;28;20033;-53
2024/03/16 07:15:26;;;;;;;4.00;2.20;;;;;;;9.99;100.00;98906.34;5025461;28;20041;-53
2024/03/16 07:17:52;;;;;;;5.25;1.80;;;;;;;9.98;100.00;98904.66;5029381;28;20574;-54
2024/03/16 07:20:17;;;;;;;6.93;1.80;;;;;;;10.00;100.00;98908.00;5032542;28;20108;-54
2024/03/16 07:22:43;;;;;;;3.78;2.17;;;;;;;9.90;100.00;98913.75;5033152;28;20059;-53
2024/03/16 07:25:08;;;;;;;5.45;2.80;;;;;;;9.98;100.00;98913.63;5032730;28;20029;-53
2024/03/16 07:27:34;;;;;;;2.92;2.03;;;;;;;10.03;100.00;98915.72;5031782;28;20071;-54
2024/03/16 07:29:59;;;;;;;4.78;2.40;;;;;;;10.02;100.00;98922.16;5032621;28;20041;-53
2024/03/16 07:32:25;;;;;;;5.38;2.80;;;;;;;10.04;100.00;98926.34;5026890;28;20509;-53
2024/03/16 07:34:51;;;;;;;4.13;1.75;;;;;;;9.96;100.00;98921.09;5034080;28;20033;-53
2024/03/16 07:37:17;;;;;;;3.72;1.77;;;;;;;10.05;100.00;98929.88;5039058;28;20040;-53
2024/03/16 07:39:43;;;;;;;3.78;1.50;;;;;;;10.05;100.00;98932.59;5034852;28;20041;-53
2024/03/16 07:42:08;;;;;;;2.15;1.30;;;;;;;10.04;100.00;98925.53;5029079;28;20032;-54
2024/03/16 07:44:34;;;;;;;2.22;1.20;;;;;;;10.11;100.00;98929.09;5025855;28;20030;-53
2024/03/16 07:47:01;;;;;;;3.70;1.52;;;;;;;10.12;100.00;98929.94;5029148;28;20037;-53
2024/03/16 07:49:26;;;;;;;2.50;1.10;;;;;;;10.12;100.00;98935.34;5033597;28;20112;-54
2024/03/16 07:51:51;;;;;;;5.10;1.08;;;;;;;10.26;100.00;98946.03;5028060;28;20108;-54
2024/03/16 07:54:17;;;;;;;4.78;1.35;;;;;;;10.31;100.00;98938.19;5028614;28;20044;-54
2024/03/16 07:56:42;;;;;;;3.45;0.70;;;;;;;10.45;100.00;98946.41;5027209;28;20033;-54
2024/03/16 07:59:09;;;;;;;2.42;1.08;;;;;;;10.66;100.00;98946.31;5026424;28;20065;-54
2024/03/16 08:01:36;;;;;;;2.15;0.50;;;;;;;10.70;100.00;98941.34;5026884;28;20041;-54
2024/03/16 08:04:01;;;;;;;1.77;0.50;;;;;;;10.74;100.00;98943.44;5031981;28;20029;-53
2024/03/16 08:06:27;;;;;;;2.38;0.50;;;;;;;10.89;100.00;98945.16;5034279;28;20381;-53
2024/03/16 08:08:53;;;;;;;0.93;0.50;;;;;;;11.07;100.00;98945.44;5028492;28;20029;-53
2024/03/16 08:11:20;;;;;;;2.45;0.82;;;;;;;11.38;100.00;98955.75;5027928;28;20476;-53
2024/03/16 08:13:46;;;;;;;2.50;0.70;;;;;;;11.58;100.00;98946.81;5024693;28;20017;-53
2024/03/16 08:16:11;;;;;;;1.67;0.60;;;;;;;11.59;100.00;98935.78;5030777;28;20427;-52
2024/03/16 08:18:38;;;;;;;4.80;0.70;;;;;;;11.80;100.00;98947.47;5032473;28;20021;-51
2024/03/16 08:21:04;;;;;;;0.50;0.40;;;;;;;12.67;100.00;98940.09;5030333;28;20026;-52
2024/03/16 08:23:29;;;;;;;6.43;1.08;;;;;;;13.10;100.00;98924.06;5033226;28;20021;-51
2024/03/16 08:25:55;;;;;;;1.40;0.45;;;;;;;13.27;100.00;98924.41;5029124;28;20461;-51
2024/03/16 08:28:21;;;;;;;3.85;0.88;;;;;;;13.41;100.00;98918.88;5027363;28;20061;-51
2024/03/16 08:30:47;;;;;;;3.40;0.50;;;;;;;13.61;100.00;98927.72;5030753;28;20108;-51
2024/03/16 08:33:12;;;;;;;2.03;0.55;;;;;;;13.02;100.00;98926.16;5037857;28;20033;-51
2024/03/16 08:35:38;;;;;;;2.65;0.30;;;;;;;12.83;100.00;98931.47;5028761;28;20112;-51
2024/03/16 08:38:04;;;;;;;2.22;0.50;;;;;;;12.99;100.00;98941.00;5025988;28;20156;-52
2024/03/16 08:40:30;;;;;;;1.45;0.32;;;;;;;13.38;100.00;98928.31;5024850;28;20021;-52
2024/03/16 08:42:57;;;;;;;2.38;0.40;;;;;;;13.20;100.00;98930.88;5033123;28;20029;-52
2024/03/16 08:45:23;;;;;;;1.42;0.40;;;;;;;12.90;100.00;98935.00;5027520;28;20025;-52
2024/03/16 08:47:49;;;;;;;1.63;0.30;;;;;;;13.20;100.00;98947.19;5027435;28;20156;-52
2024/03/16 08:50:14;;;;;;;3.60;0.70;;;;;;;13.52;100.00;98945.38;5031669;28;20104;-52
2024/03/16 08:52:42;;;;;;;1.73;0.45;;;;;;;13.60;100.00;98945.09;5033184;28;20104;-51
2024/03/16 08:55:12;;;;;;;1.70;0.43;;;;;;;13.93;100.00;98938.56;5030918;28;20337;-51
2024/03/16 08:57:43;;;;;;;4.32;1.20;;;;;;;13.70;100.00;98940.03;5025217;28;20037;-53
2024/03/16 09:00:12;;;;;;;2.25;0.52;;;;;;;13.75;100.00;98947.50;5011886;28;20356;-52
2024/03/16 09:02:38;;;;;;;2.35;0.75;;;;;;;13.57;100.00;98949.09;5029827;28;20028;-52
2024/03/16 09:05:03;;;;;;;3.83;0.45;;;;;;;13.54;100.00;98954.13;5031013;28;20032;-52
2024/03/16 09:07:29;;;;;;;3.92;0.85;;;;;;;13.08;100.00;98955.19;5024524;28;20025;-52
2024/03/16 09:09:57;;;;;;;4.45;0.60;;;;;;;13.19;100.00;98950.97;5026364;28;20021;-51
2024/03/16 09:12:23;;;;;;;4.35;0.60;;;;;;;12.67;100.00;98953.66;5033060;28;20033;-52
2024/03/16 09:14:48;;;;;;;2.95;0.50;;;;;;;12.49;100.00;98960.59;5027658;28;20375;-52
2024/03/16 09:17:14;;;;;;;4.97;0.77;;;;;;;12.30;100.00;98969.59;5007198;28;20048;-51
2024/03/16 09:19:39;;;;;;;3.30;0.60;;;;;;;12.55;100.00;98971.63;5029228;28;20075;-51
2024/03/16 09:22:05;;;;;;;4.18;0.60;;;;;;;12.92;100.00;98970.91;5030523;28;20060;-52
2024/03/16 09:24:30;;;;;;;3.17;1.00;;;;;;;12.84;100.00;98978.47;5024818;28;20025;-52
2024/03/16 09:26:56;;;;;;;2.10;0.40;;;;;;;13.05;100.00;98971.94;5027330;28;20057;-52
2024/03/16 09:29:21;;;;;;;3.33;0.60;;;;;;;13.42;100.00;98969.47;5030387;28;20037;-52
2024/03/16 09:31:47;;;;;;;4.82;0.70;;;;;;;12.91;100.00;98971.94;5008727;28;20057;-52
2024/03/16 09:34:14;;;;;;;4.38;0.68;;;;;;;13.46;100.00;98973.41;5012655;28;20036;-52
2024/03/16 09:36:40;;;;;;;4.93;1.05;;;;;;;13.93;100.00;98968.50;5025651;28;20456;-52
2024/03/16 09:39:10;;;;;;;2.45;0.55;;;;;;;14.29;100.00;98970.50;5024962;28;20053;-53
2024/03/16 09:41:38;;;;;;;1.70;0.40;;;;;;;13.93;100.00;98969.31;5030333;28;20061;-52
2024/03/16 09:44:04;;;;;;;2.50;0.70;;;;;;;14.01;100.00;98973.66;5030097;28;20072;-52
2024/03/16 09:46:31;;;;;;;3.03;0.57;;;;;;;13.68;100.00;98987.53;5030213;28;20105;-52
2024/03/16 09:48:58;;;;;;;2.78;0.63;;;;;;;13.65;100.00;98986.06;5027262;28;20032;-53
2024/03/16 09:51:23;;;;;;;3.78;0.65;;;;;;;13.87;100.00;98981.09;5012527;28;20354;-54
2024/03/16 09:53:50;;;;;;;2.47;0.60;;;;;;;13.73;100.00;98980.38;5028698;28;20029;-53
2024/03/16 09:56:16;;;;;;;4.13;0.50;;;;;;;13.65;100.00;98996.94;5033143;28;20022;-52
2024/03/16 09:58:42;;;;;;;1.85;0.50;;;;;;;13.34;100.00;98992.31;5030650;28;20021;-52
2024/03/16 10:01:08;;;;;;;2.20;0.47;;;;;;;13.43;100.00;98987.44;5024115;28;20028;-52
2024/03/16 10:03:35;;;;;;;2.67;0.50;;;;;;;13.98;100.00;98990.44;5027975;28;20041;-52
2024/03/16 10:06:05;;;;;;;0.73;0.35;;;;;;;14.03;100.00;98985.16;5025693;28;20481;-52
2024/03/16 10:08:37;;;;;;;1.35;0.32;;;;;;;13.55;100.00;98989.25;5025187;28;20030;-52
2024/03/16 10:11:12;;;;;;;1.70;0.28;;;;;;;13.80;100.00;98988.47;5024178;28;20029;-52
2024/03/16 10:13:58;;;;;;;0.55;0.40;;;;;;;13.48;100.00;98995.78;5037332;28;20021;-52
2024/03/16 10:16:24;;;;;;;1.63;0.50;;;;;;;13.74;100.00;98994.78;5027829;28;20026;-52
2024/03/16 10:18:52;;;;;;;0.73;0.40;;;;;;;13.22;100.00;98994.00;5024240;28;20021;-52
2024/03/16 10:21:18;;;;;;;2.47;0.57;;;;;;;13.44;100.00;98994.53;5025825;28;20079;-52
2024/03/16 10:23:45;;;;;;;2.22;0.32;;;;;;;13.26;100.00;99016.97;5031367;28;20406;-53
2024/03/16 10:26:13;;;;;;;0.93;0.30;;;;;;;12.80;100.00;99013.34;5011360;28;20022;-53
2024/03/16 10:28:38;;;;;;;4.57;0.57;;;;;;;13.08;100.00;99020.38;5030225;28;20492;-53
2024/03/16 10:31:04;;;;;;;2.63;0.57;;;;;;;13.62;100.00;99016.38;5029448;28;20030;-53
2024/03/16 10:33:36;;;;;;;4.13;0.50;;;;;;;13.91;100.00;99001.38;5026444;28;20511;-53
2024/03/16 10:36:02;;;;;;;0.80;0.22;;;;;;;14.20;100.00;99004.47;5026404;28;20109;-53
2024/03/16 10:38:29;;;;;;;1.35;0.40;;;;;;;13.48;100.00;99020.25;5029931;28;20467;-53
2024/03/16 10:40:59;;;;;;;2.72;0.80;;;;;;;13.97;100.00;99007.81;5029284;28;20057;-53
2024/03/16 10:43:30;;;;;;;3.33;0.50;;;;;;;13.98;100.00;99014.91;5022962;28;20018;-53
2024/03/16 10:45:57;;;;;;;4.32;0.50;;;;;;;14.04;100.00;99008.59;5024749;28;20025;-53
2024/03/16 10:48:23;;;;;;;1.65;0.52;;;;;;;14.64;100.00;99008.91;5025597;28;20018;-53
2024/03/16 10:50:48;;;;;;;3.17;0.70;;;;;;;14.68;100.00;99015.59;5028672;28;20105;-53
2024/03/16 10:53:16;;;;;;;1.27;0.50;;;;;;;15.09;100.00;99022.31;5031547;28;20025;-53
2024/03/16 10:55:43;;;;;;;1.77;0.32;;;;;;;15.46;100.00;99021.44;5032738;28;20454;-53
2024/03/16 10:58:25;;;;;;;3.60;0.50;;;;;;;15.98;100.00;99008.13;5032626;28;20032;-53
2024/03/16 11:00:56;;;;;;;0.68;0.30;;;;;;;15.71;100.00;99015.88;5029628;28;20097;-53
2024/03/16 11:03:31;;;;;;;3.03;0.30;;;;;;;15.27;100.00;99026.06;5033581;28;20372;-53
2024/03/16 11:06:09;;;;;;;1.85;0.30;;;;;;;15.68;100.00;99013.56;5028126;28;20041;-53
2024/03/16 11:08:42;;;;;;;1.05;0.43;;;;;;;16.03;100.00;99021.06;5031178;28;20025;-53
2024/03/16 11:11:11;;;;;;;1.15;0.30;;;;;;;16.16;100.00;99010.75;5021642;28;20133;-53
2024/03/16 11:13:36;;;;;;;1.40;0.28;;;;;;;17.04;100.00;99006.28;5027331;28;20030;-54
2024/03/16 11:16:23;;;;;;;1.10;0.30;;;;;;;16.58;100.00;99001.66;5030294;28;20095;-54
2024/03/16 11:18:52;;;;;;;2.63;0.40;;;;;;;17.81;100.00;99002.38;5030179;28;20083;-53
2024/03/16 11:21:20;;;;;;;;;;;;;;;17.57;100.00;99009.00;5028462;28;20033;-54
2024/03/16 11:23:47;;;;;;;2.35;0.47;;;;;;;17.01;100.00;99005.97;5032320;28;19913;-55
2024/03/16 11:26:28;;;;;;;2.03;0.47;;;;;;;18.61;100.00;99011.41;5029470;28;20025;-54
2024/03/16 11:29:04;;;;;;;2.65;0.35;;;;;;;18.42;100.00;99010.84;5028186;28;20025;-54
2024/03/16 11:31:39;;;;;;;0.25;0.20;;;;;;;21.28;100.00;99001.19;5030429;28;20066;-54
2024/03/16 11:34:11;;;;;;;2.15;0.30;;;;;;;18.67;100.00;98996.69;5032366;28;20082;-54
2024/03/16 11:36:41;;;;;;;2.45;0.40;;;;;;;18.73;100.00;99017.63;5027036;28;20021;-54
2024/03/16 11:39:10;;;;;;;1.17;0.55;;;;;;;18.46;100.00;99011.16;5026515;28;20105;-54
2024/03/16 11:41:46;;;;;;;2.20;0.45;;;;;;;18.60;100.00;99017.94;5037867;28;20032;-54
2024/03/16 11:44:13;;;;;;;2.33;0.40;;;;;;;18.20;100.00;99009.91;5027912;28;20013;-54
2024/03/16 11:46:40;;;;;;;1.05;0.38;;;;;;;18.40;100.00;99013.00;5030387;28;20061;-54
2024/03/16 11:49:09;;;;;;;5.25;0.30;;;;;;;18.96;100.00;98999.31;5026146;28;20047;-54
2024/03/16 11:51:36;;;;;;;1.65;0.45;;;;;;;20.79;100.00;99000.38;5029575;28;20021;-54
2024/03/16 11:54:03;;;;;;;0.65;0.30;;;;;;;19.40;100.00;99008.38;5031929;28;20039;-54
2024/03/16 11:56:29;;;;;;;0.57;0.30;;;;;;;19.16;100.00;99017.97;5029099;28;20037;-54
2024/03/16 11:58:56;;;;;;;1.75;0.40;;;;;;;19.83;100.00;99014.97;5030876;28;20025;-54